の過去48時間の天気

Nizhnevartovsk

現在時刻: 7/5 07:52 +05 (7/5 02:52 UTC) 以下の時間は現地時間です。

過去48時間のMETAR気象情報
時間 風向 風速(m/s) 視程 気温(℃) 湿度(%) 気圧(hPa) 天気現象
5 07:30 北東 5 10km以上 16 68 1006
5 07:00 北東 5 10km以上 14 72 1006
5 06:30 北東 5 10km以上 14 77 1006
5 06:00 北東 4 10km以上 13 77 1007
5 05:30 北北東 4 10km以上 13 77 1006
5 05:00 北東 5 10km以上 13 77 1006
5 04:30 北北東 5 10km以上 13 77 1007
5 04:00 北東 5 10km以上 13 72 1007
5 03:30 北東 5 10km以上 13 77 1006
5 03:00 北北東 5 10km以上 13 72 1006
5 02:30 北北東 5 10km以上 13 77 1007
5 02:00 北東 5 10km以上 13 77 1007
5 01:30 北東 5 10km以上 14 72 1007
5 01:00 北北東 4 10km以上 14 72 1007
5 00:30 北北東 4 10km以上 14 72 1007
5 00:00 北北東 3 10km以上 14 77 1007
4 23:30 北北東 4 10km以上 14 77 1007
4 23:00 北北東 3 10km以上 14 72 1007
4 22:30 北北東 3 10km以上 14 77 1007
4 22:00 北北東 3 10km以上 14 77 1007
4 21:30 北北東 3 10km以上 14 77 1007
4 21:00 北北東 3 10km以上 15 77 1007
4 20:30 北北東 3 10km以上 15 72 1007
4 20:00 北北東 3 10km以上 15 77 1007
4 19:30 北東 3 10km以上 16 72 1007
4 19:00 北北東 3 10km以上 16 72 1007
4 18:30 2 10km以上 16 72 1007
4 18:00 北北東 3 10km以上 16 68 1007
4 17:30 北北東 4 10km以上 17 68 1007
4 17:00 北北東 4 10km以上 17 63 1007
4 16:30 北北東 4 10km以上 16 72 1007
4 16:00 北北東 5 10km以上 16 72 1007
4 15:30 東北東 4 10km以上 17 68 1007
4 15:00 北北東 4 10km以上 17 63 1007
4 14:30 北東 5 10km以上 17 63 1007
4 14:00 北北東 4 10km以上 17 68 1007
4 13:30 北北東 5 10km以上 18 60 1007
4 13:00 東北東 5 10km以上 18 56 1007
4 12:30 北北東 3 10km以上 18 56 1007
4 12:00 北北東 3 10km以上 18 52 1007
4 11:30 北北東 3 10km以上 17 59 1007
4 11:00 北東 5 10km以上 17 55 1007
4 10:30 4 10km以上 17 59 1007
4 10:00 北北東 3 10km以上 17 59 1007
4 09:30 北北東 3 10km以上 17 59 1007
4 09:00 北東 3 10km以上 16 68 1007
4 08:30 北北東 2 10km以上 16 72 1007
4 08:00 北北東 3 10km以上 15 72 1007
4 07:30 北北東 3 10km以上 14 82 1007
4 07:00 北北東 4 10km以上 14 77 1006
4 06:30 北東 4 10km以上 13 82 1006
4 06:00 北北東 3 10km以上 12 88 1006
4 05:30 2 10km以上 12 88 1006
4 05:00 2 10km以上 12 88 1006
4 04:30 2 10km以上 11 94 1006
4 04:00 北北東 2 10km以上 11 94 1006
4 03:30 2 10km以上 11 94 1006
4 03:00 北北東 3 10km以上 11 94 1005
4 02:30 北北東 3 10km以上 11 94 1005
4 02:00 北北東 3 10km以上 11 94 1005
4 01:30 北北東 3 10km以上 12 88 1005
4 01:00 北北東 3 10km以上 12 88 1005
4 00:30 北北東 3 10km以上 12 88 1005
4 00:00 3 10km以上 12 94 1006
3 23:30 2 10km以上 12 94 1006
3 23:00 2 10km以上 12 94 1005
3 22:30 2 10km以上 12 94 1005
3 22:00 北北東 2 10km以上 12 94 1005
3 21:30 2 10km以上 13 82 1005
3 21:00 2 10km以上 14 82 1005
3 20:30 1 10km以上 14 82 1005
3 20:00 静穏 0 10km以上 15 77 1005
3 19:30 北西 1 10km以上 14 94 1005
3 19:00 北西 1 10km以上 15 88 1005
3 18:30 西北西 1 10km以上 15 94 1005
3 18:00 西北西 1 10km以上 15 94 1005
3 17:30 西 2 10km以上 15 94 1004
3 17:00 2 10km以上 15 94 1004 弱いしゅう雨
3 16:30 西 2 10km以上 16 77 1004
3 16:00 西南西 3 10km以上 16 82 1004
3 15:30 西 2 10km以上 15 88 1004
3 15:00 西 3 10km以上 16 72 1004
3 14:30 西南西 3 10km以上 17 68 1004
3 14:00 西 2 10km以上 18 64 1004
3 13:30 南南西 2 10km以上 18 64 1004
3 13:00 南西 3 10km以上 16 72 1004
3 12:30 南西 3 10km以上 16 72 1003
3 12:00 南西 1 10km以上 16 72 1004
3 11:30 西 2 10km以上 16 77 1004
3 11:00 西 2 10km以上 14 82 1004
3 10:30 北西 1 10km以上 14 82 1004
3 10:00 静穏 0 9000m 13 100 1004 弱いしゅう雨
3 09:30 北西 1 7000m 13 94 1003 弱いしゅう雨
3 09:00 北西 1 10km以上 14 82 1003
3 08:30 北北西 2 10km以上 14 82 1003
3 08:00 北北西 2 10km以上 14 82 1003
USNN 050230Z 04005MPS CAVOK 16/10 Q1006 R03/0///65 NOSIG RMK QFE751
USNN 050200Z 04005MPS CAVOK 14/09 Q1006 R03/0///65 NOSIG RMK QFE751
USNN 050130Z 04005MPS CAVOK 14/10 Q1006 R03/0///65 NOSIG RMK QFE751
USNN 050100Z 04004MPS CAVOK 13/09 Q1007 R03/0///65 NOSIG RMK QFE751
USNN 050030Z 03004MPS CAVOK 13/09 Q1006 R03/0///65 NOSIG RMK QFE751
USNN 050000Z 04005MPS CAVOK 13/09 Q1006 R03/0///65 NOSIG RMK QFE751
USNN 042330Z 03005MPS CAVOK 13/09 Q1007 R03/0///65 NOSIG RMK QFE751
USNN 042300Z 04005MPS CAVOK 13/08 Q1007 R03/0///65 NOSIG RMK QFE751
USNN 042230Z 04005MPS CAVOK 13/09 Q1006 R03/0///65 NOSIG RMK QFE751
USNN 042200Z 03005MPS CAVOK 13/08 Q1006 R03/0///65 NOSIG RMK QFE751
USNN 042130Z 03005MPS CAVOK 13/09 Q1007 R03/0///65 NOSIG RMK QFE751
USNN 042100Z 04005MPS CAVOK 13/09 Q1007 R03/0///65 NOSIG RMK QFE751
USNN 042030Z 04005MPS CAVOK 14/09 Q1007 R03/0///65 NOSIG RMK QFE751
USNN 042000Z 03004MPS CAVOK 14/09 Q1007 R03/0///65 NOSIG RMK QFE751
USNN 041930Z 03004MPS CAVOK 14/09 Q1007 R03/0///65 NOSIG RMK QFE751
USNN 041900Z 03003MPS CAVOK 14/10 Q1007 R03/0///65 NOSIG RMK QFE751
USNN 041830Z 03004MPS CAVOK 14/10 Q1007 R03/0///65 NOSIG RMK QFE751
USNN 041800Z 02003MPS CAVOK 14/09 Q1007 R03/0///65 NOSIG RMK QFE751
USNN 041730Z 02003MPS CAVOK 14/10 Q1007 R03/0///65 NOSIG RMK QFE752
USNN 041700Z 02003MPS CAVOK 14/10 Q1007 R03/0///65 NOSIG RMK QFE752
USNN 041630Z 02003MPS CAVOK 14/10 Q1007 R03/0///65 NOSIG RMK QFE752
USNN 041600Z 02003MPS CAVOK 15/11 Q1007 R03/0///65 NOSIG RMK QFE752
USNN 041530Z 02003MPS CAVOK 15/10 Q1007 R03/0///65 NOSIG RMK QFE752
USNN 041500Z 02003MPS CAVOK 15/11 Q1007 R03/0///65 NOSIG RMK QFE751
USNN 041430Z 04003MPS CAVOK 16/11 Q1007 R03/0///65 NOSIG RMK QFE751
USNN 041400Z 03003MPS 9999 FEW038CB 16/11 Q1007 R03/0///65 NOSIG RMK QFE751
USNN 041330Z 01002MPS CAVOK 16/11 Q1007 R03/0///65 NOSIG RMK QFE751
USNN 041300Z 03003MPS CAVOK 16/10 Q1007 R03/0///65 NOSIG RMK QFE751
USNN 041230Z 02004MPS CAVOK 17/11 Q1007 R03/0///65 NOSIG RMK QFE751
USNN 041200Z 03004MPS 9999 FEW036CB 17/10 Q1007 R03/0///65 NOSIG RMK QFE751
USNN 041130Z 03004MPS 9999 SCT041CB 16/11 Q1007 R03/0///65 NOSIG RMK QFE751
USNN 041100Z 03005MPS 9999 SCT033CB 16/11 Q1007 R03/0///65 NOSIG RMK QFE751
USNN 041030Z 07004MPS 9999 FEW030CB 17/11 Q1007 R03/0///65 NOSIG RMK QFE751
USNN 041000Z 02004MPS 9999 SCT034CB 17/10 Q1007 R03/0///65 NOSIG RMK QFE751
USNN 040930Z 04005MPS 9999 FEW040CB 17/10 Q1007 R03/0///65 NOSIG RMK QFE751
USNN 040900Z 03004MPS 340V050 9999 FEW035CB 17/11 Q1007 R03/0///65 NOSIG RMK QFE751
USNN 040830Z 03005MPS 9999 FEW032CB 18/10 Q1007 R03/0///65 NOSIG RMK QFE751
USNN 040800Z 06005MPS 9999 FEW034CB 18/09 Q1007 R03/0///65 NOSIG RMK QFE751
USNN 040730Z 03003MPS 9999 FEW034CB 18/09 Q1007 R03/0///65 NOSIG RMK QFE751
USNN 040700Z 03003MPS 340V080 9999 FEW039CB 18/08 Q1007 R03/0///65 NOSIG RMK QFE751
USNN 040630Z 02003MPS CAVOK 17/09 Q1007 R03/0///65 NOSIG RMK QFE751
USNN 040600Z 04005MPS 9999 SCT038CB 17/08 Q1007 R03/0///65 NOSIG RMK QFE751
USNN 040530Z 01004MPS 9999 SCT041CB 17/09 Q1007 R03/0///65 NOSIG RMK QFE751
USNN 040500Z 03003MPS 350V060 9999 FEW034CB 17/09 Q1007 R03/0///65 NOSIG RMK QFE751
USNN 040430Z 02003MPS 350V060 9999 FEW029 17/09 Q1007 R03/0///65 NOSIG RMK QFE751
USNN 040400Z 04003MPS 9999 FEW031 16/10 Q1007 R03/0///65 NOSIG RMK QFE751
USNN 040330Z 02002MPS 340V060 CAVOK 16/11 Q1007 R03/0///65 NOSIG RMK QFE751
USNN 040300Z 03003MPS CAVOK 15/10 Q1007 R03/0///65 NOSIG RMK QFE751
USNN 040230Z 03003MPS CAVOK 14/11 Q1007 R03/0///65 NOSIG RMK QFE751
USNN 040200Z 03004MPS CAVOK 14/10 Q1006 R03/0///65 NOSIG RMK QFE751
USNN 040130Z 04004MPS CAVOK 13/10 Q1006 R03/0///65 NOSIG RMK QFE751
USNN 040100Z 02003MPS CAVOK 12/10 Q1006 R03/0///65 NOSIG RMK QFE751
USNN 040030Z 01002MPS CAVOK 12/10 Q1006 R03/0///65 NOSIG RMK QFE751
USNN 040000Z 01002MPS CAVOK 12/10 Q1006 R03/0///65 NOSIG RMK QFE751
USNN 032330Z 01002MPS CAVOK 11/10 Q1006 R03/0///65 NOSIG RMK QFE750
USNN 032300Z 02002MPS CAVOK 11/10 Q1006 R03/0///65 NOSIG RMK QFE750
USNN 032230Z 01002MPS CAVOK 11/10 Q1006 R03/0///65 NOSIG RMK QFE750
USNN 032200Z 02003MPS CAVOK 11/10 Q1005 R03/0///65 NOSIG RMK QFE750
USNN 032130Z 02003MPS CAVOK 11/10 Q1005 R03/0///65 NOSIG RMK QFE750
USNN 032100Z 03003MPS CAVOK 11/10 Q1005 R03/0///65 NOSIG RMK QFE750
USNN 032030Z 02003MPS CAVOK 12/10 Q1005 R03/0///65 NOSIG RMK QFE750
USNN 032000Z 02003MPS CAVOK 12/10 Q1005 R03/0///65 NOSIG RMK QFE750
USNN 031930Z 02003MPS CAVOK 12/10 Q1005 R03/0///65 NOSIG RMK QFE750
USNN 031900Z 01003MPS CAVOK 12/11 Q1006 R03/0///65 NOSIG RMK QFE750
USNN 031830Z 01002MPS CAVOK 12/11 Q1006 R03/0///65 NOSIG RMK QFE750
USNN 031800Z 36002MPS CAVOK 12/11 Q1005 R03/0///65 NOSIG RMK QFE750
USNN 031730Z 36002MPS CAVOK 12/11 Q1005 R03/0///65 NOSIG RMK QFE750
USNN 031700Z 02002MPS CAVOK 12/11 Q1005 R03/0///65 NOSIG RMK QFE750
USNN 031630Z 01002MPS CAVOK 13/10 Q1005 R03/0///65 NOSIG RMK QFE750
USNN 031600Z 01002MPS CAVOK 14/11 Q1005 R03/0///65 NOSIG RMK QFE750
USNN 031530Z 36001MPS CAVOK 14/11 Q1005 R03/19//60 NOSIG RMK QFE750
USNN 031500Z 00000MPS CAVOK 15/11 Q1005 R03/19//60 NOSIG RMK QFE750
USNN 031430Z 31001MPS 9999 SCT030CB 14/13 Q1005 R03/19//60 NOSIG RMK QFE750
USNN 031400Z 31001MPS 9999 SCT030CB 15/13 Q1005 R03/19//60 NOSIG RMK QFE750
USNN 031330Z 29001MPS 9999 SCT030CB 15/14 Q1005 R03/19//60 NOSIG RMK QFE750
USNN 031300Z 29001MPS 9999 SCT030CB 15/14 Q1005 R21/19//60 NOSIG RMK QFE749
USNN 031230Z 28002MPS 9999 SCT030CB 15/14 Q1004 R21/12//65 NOSIG RMK QFE748
USNN 031200Z 35002MPS 9999 -SHRA SCT028CB 15/14 Q1004 R21/12//65 NOSIG RMK QFE748
USNN 031130Z 27002MPS 9999 SCT030CB 16/12 Q1004 R21/12//65 NOSIG RMK QFE748
USNN 031100Z 25003MPS 9999 SCT030CB 16/13 Q1004 R21/12//65 NOSIG RMK QFE748
USNN 031030Z 26002MPS 9999 SCT035CB 15/13 Q1004 R21/0///65 NOSIG RMK QFE748
USNN 031000Z 27003MPS 9999 SCT034CB 16/11 Q1004 R21/0///65 NOSIG RMK QFE748
USNN 030930Z 25003MPS 210V280 9999 SCT032CB 17/11 Q1004 R21/19//62 NOSIG RMK QFE748
USNN 030900Z 26002MPS 230V300 9999 FEW030 18/11 Q1004 R03/19//62 NOSIG RMK QFE749
USNN 030830Z 21002MPS 9999 SCT023 18/11 Q1004 R03/19//62 NOSIG RMK QFE749
USNN 030800Z 22003MPS 9999 SCT021 16/11 Q1004 R03/19//62 NOSIG RMK QFE749
USNN 030730Z 23003MPS 190V260 9999 SCT025CB 16/11 Q1003 R03/19//62 NOSIG RMK QFE749
USNN 030700Z 22001MPS 9999 SCT019CB 16/11 Q1004 R03/19//62 NOSIG RMK QFE749
USNN 030630Z 28002MPS 250V350 9999 BKN033CB 16/12 Q1004 R03/19//62 NOSIG RMK QFE749
USNN 030600Z 28002MPS 9999 BKN029CB 14/11 Q1004 R03/19//62 NOSIG RMK QFE749
USNN 030530Z 31001MPS 9999 BKN022CB 14/11 Q1004 R03/0///65 NOSIG RMK QFE749
USNN 030500Z 00000MPS 9000 -SHRA BKN029CB 13/13 Q1004 R03/0///65 NOSIG RMK QFE749
USNN 030430Z 32001MPS 7000 -SHRA BKN016CB 13/12 Q1003 R03/0///65 NOSIG RMK QFE749
USNN 030400Z 31001MPS 9999 BKN022CB 14/11 Q1003 R03/0///65 NOSIG RMK QFE749
USNN 030330Z 33002MPS 290V360 9999 OVC018 14/11 Q1003 R03/19//60 NOSIG RMK QFE748
USNN 030300Z 33002MPS 270V360 CAVOK 14/11 Q1003 R03/19//60 NOSIG RMK QFE749